sensor_id;sensor_type;location;lat;lon;timestamp;P1;durP1;ratioP1;P2;durP2;ratioP2
5937;SDS011;2994;51.220;4.412;2024-02-28T00:01:49;6.93;;;6.23;;
5937;SDS011;2994;51.220;4.412;2024-02-28T00:04:15;7.70;;;7.10;;
5937;SDS011;2994;51.220;4.412;2024-02-28T00:06:40;6.63;;;6.03;;
5937;SDS011;2994;51.220;4.412;2024-02-28T00:09:06;7.23;;;6.60;;
5937;SDS011;2994;51.220;4.412;2024-02-28T00:11:31;7.53;;;6.53;;
5937;SDS011;2994;51.220;4.412;2024-02-28T00:13:57;8.30;;;7.00;;
5937;SDS011;2994;51.220;4.412;2024-02-28T00:16:25;7.40;;;6.70;;
5937;SDS011;2994;51.220;4.412;2024-02-28T00:18:50;8.33;;;7.07;;
5937;SDS011;2994;51.220;4.412;2024-02-28T00:21:16;7.30;;;6.53;;
5937;SDS011;2994;51.220;4.412;2024-02-28T00:23:41;11.03;;;8.03;;
5937;SDS011;2994;51.220;4.412;2024-02-28T00:26:07;7.57;;;6.97;;
5937;SDS011;2994;51.220;4.412;2024-02-28T00:28:32;8.60;;;7.40;;
5937;SDS011;2994;51.220;4.412;2024-02-28T00:30:58;7.60;;;6.90;;
5937;SDS011;2994;51.220;4.412;2024-02-28T00:33:23;7.23;;;6.63;;
5937;SDS011;2994;51.220;4.412;2024-02-28T00:35:49;9.03;;;7.20;;
5937;SDS011;2994;51.220;4.412;2024-02-28T00:38:14;7.83;;;7.13;;
5937;SDS011;2994;51.220;4.412;2024-02-28T00:40:40;7.90;;;7.20;;
5937;SDS011;2994;51.220;4.412;2024-02-28T00:43:06;8.13;;;7.30;;
5937;SDS011;2994;51.220;4.412;2024-02-28T00:45:31;7.73;;;6.97;;
5937;SDS011;2994;51.220;4.412;2024-02-28T00:47:57;9.00;;;8.10;;
5937;SDS011;2994;51.220;4.412;2024-02-28T00:50:22;10.70;;;7.87;;
5937;SDS011;2994;51.220;4.412;2024-02-28T00:52:48;12.40;;;8.47;;
5937;SDS011;2994;51.220;4.412;2024-02-28T00:55:13;9.53;;;8.10;;
5937;SDS011;2994;51.220;4.412;2024-02-28T00:57:39;9.10;;;8.20;;
5937;SDS011;2994;51.220;4.412;2024-02-28T01:00:04;11.20;;;9.00;;
5937;SDS011;2994;51.220;4.412;2024-02-28T01:02:31;10.73;;;8.20;;
5937;SDS011;2994;51.220;4.412;2024-02-28T01:04:57;8.50;;;7.60;;
5937;SDS011;2994;51.220;4.412;2024-02-28T01:07:22;9.33;;;8.43;;
5937;SDS011;2994;51.220;4.412;2024-02-28T01:09:48;9.10;;;8.30;;
5937;SDS011;2994;51.220;4.412;2024-02-28T01:12:13;9.50;;;8.43;;
5937;SDS011;2994;51.220;4.412;2024-02-28T01:14:39;11.07;;;9.97;;
5937;SDS011;2994;51.220;4.412;2024-02-28T01:17:04;10.73;;;8.67;;
5937;SDS011;2994;51.220;4.412;2024-02-28T01:19:30;11.27;;;8.10;;
5937;SDS011;2994;51.220;4.412;2024-02-28T01:21:56;9.00;;;7.87;;
5937;SDS011;2994;51.220;4.412;2024-02-28T01:24:22;9.20;;;7.67;;
5937;SDS011;2994;51.220;4.412;2024-02-28T01:26:47;10.50;;;9.60;;
5937;SDS011;2994;51.220;4.412;2024-02-28T01:29:13;9.40;;;7.90;;
5937;SDS011;2994;51.220;4.412;2024-02-28T01:31:38;10.83;;;8.77;;
5937;SDS011;2994;51.220;4.412;2024-02-28T01:34:04;12.07;;;9.37;;
5937;SDS011;2994;51.220;4.412;2024-02-28T01:36:29;10.47;;;9.13;;
5937;SDS011;2994;51.220;4.412;2024-02-28T01:38:55;11.67;;;9.30;;
5937;SDS011;2994;51.220;4.412;2024-02-28T01:41:20;11.53;;;10.13;;
5937;SDS011;2994;51.220;4.412;2024-02-28T01:43:46;11.73;;;9.37;;
5937;SDS011;2994;51.220;4.412;2024-02-28T01:46:22;11.47;;;8.90;;
5937;SDS011;2994;51.220;4.412;2024-02-28T01:48:50;10.73;;;9.10;;
5937;SDS011;2994;51.220;4.412;2024-02-28T01:51:16;11.70;;;9.40;;
5937;SDS011;2994;51.220;4.412;2024-02-28T01:53:43;12.53;;;9.00;;
5937;SDS011;2994;51.220;4.412;2024-02-28T01:56:10;12.13;;;9.27;;
5937;SDS011;2994;51.220;4.412;2024-02-28T01:58:38;12.10;;;9.87;;
5937;SDS011;2994;51.220;4.412;2024-02-28T02:01:04;8.93;;;8.03;;
5937;SDS011;2994;51.220;4.412;2024-02-28T02:03:31;12.60;;;9.20;;
5937;SDS011;2994;51.220;4.412;2024-02-28T02:05:59;9.97;;;8.50;;
5937;SDS011;2994;51.220;4.412;2024-02-28T02:08:26;9.20;;;8.23;;
5937;SDS011;2994;51.220;4.412;2024-02-28T02:10:52;9.70;;;8.80;;
5937;SDS011;2994;51.220;4.412;2024-02-28T02:13:17;10.97;;;9.10;;
5937;SDS011;2994;51.220;4.412;2024-02-28T02:15:43;11.73;;;9.57;;
5937;SDS011;2994;51.220;4.412;2024-02-28T02:18:09;11.17;;;9.13;;
5937;SDS011;2994;51.220;4.412;2024-02-28T02:20:34;10.67;;;9.57;;
5937;SDS011;2994;51.220;4.412;2024-02-28T02:23:05;10.03;;;9.07;;
5937;SDS011;2994;51.220;4.412;2024-02-28T02:25:31;9.83;;;8.83;;
5937;SDS011;2994;51.220;4.412;2024-02-28T02:27:56;10.20;;;9.20;;
5937;SDS011;2994;51.220;4.412;2024-02-28T02:30:21;10.53;;;9.53;;
5937;SDS011;2994;51.220;4.412;2024-02-28T02:32:47;10.13;;;9.30;;
5937;SDS011;2994;51.220;4.412;2024-02-28T02:35:13;10.60;;;9.27;;
5937;SDS011;2994;51.220;4.412;2024-02-28T02:37:42;10.57;;;9.57;;
5937;SDS011;2994;51.220;4.412;2024-02-28T02:40:10;11.20;;;8.70;;
5937;SDS011;2994;51.220;4.412;2024-02-28T02:42:37;10.07;;;9.17;;
5937;SDS011;2994;51.220;4.412;2024-02-28T02:45:02;12.50;;;10.53;;
5937;SDS011;2994;51.220;4.412;2024-02-28T02:47:28;10.73;;;9.63;;
5937;SDS011;2994;51.220;4.412;2024-02-28T02:49:54;10.90;;;9.77;;
5937;SDS011;2994;51.220;4.412;2024-02-28T02:52:19;11.80;;;9.80;;
5937;SDS011;2994;51.220;4.412;2024-02-28T02:54:44;11.70;;;9.07;;
5937;SDS011;2994;51.220;4.412;2024-02-28T02:57:10;9.40;;;8.40;;
5937;SDS011;2994;51.220;4.412;2024-02-28T02:59:36;15.23;;;9.80;;
5937;SDS011;2994;51.220;4.412;2024-02-28T03:02:01;12.03;;;8.97;;
5937;SDS011;2994;51.220;4.412;2024-02-28T03:04:28;10.77;;;9.23;;
5937;SDS011;2994;51.220;4.412;2024-02-28T03:06:53;10.60;;;9.50;;
5937;SDS011;2994;51.220;4.412;2024-02-28T03:09:19;11.47;;;9.30;;
5937;SDS011;2994;51.220;4.412;2024-02-28T03:11:45;10.53;;;9.33;;
5937;SDS011;2994;51.220;4.412;2024-02-28T03:14:11;11.40;;;10.33;;
5937;SDS011;2994;51.220;4.412;2024-02-28T03:16:40;11.27;;;10.10;;
5937;SDS011;2994;51.220;4.412;2024-02-28T03:19:06;10.60;;;9.60;;
5937;SDS011;2994;51.220;4.412;2024-02-28T03:21:32;11.73;;;9.37;;
5937;SDS011;2994;51.220;4.412;2024-02-28T03:23:57;11.67;;;9.60;;
5937;SDS011;2994;51.220;4.412;2024-02-28T03:26:22;11.17;;;10.03;;
5937;SDS011;2994;51.220;4.412;2024-02-28T03:28:48;10.93;;;9.60;;
5937;SDS011;2994;51.220;4.412;2024-02-28T03:31:13;10.93;;;9.83;;
5937;SDS011;2994;51.220;4.412;2024-02-28T03:33:39;11.70;;;10.50;;
5937;SDS011;2994;51.220;4.412;2024-02-28T03:36:04;11.97;;;10.77;;
5937;SDS011;2994;51.220;4.412;2024-02-28T03:38:30;11.70;;;10.40;;
5937;SDS011;2994;51.220;4.412;2024-02-28T03:40:55;11.93;;;9.70;;
5937;SDS011;2994;51.220;4.412;2024-02-28T03:43:21;11.93;;;10.70;;
5937;SDS011;2994;51.220;4.412;2024-02-28T03:45:47;12.10;;;9.73;;
5937;SDS011;2994;51.220;4.412;2024-02-28T03:48:13;12.83;;;11.50;;
5937;SDS011;2994;51.220;4.412;2024-02-28T03:50:39;11.77;;;10.47;;
5937;SDS011;2994;51.220;4.412;2024-02-28T03:53:04;12.47;;;10.70;;
5937;SDS011;2994;51.220;4.412;2024-02-28T03:55:30;12.67;;;11.47;;
5937;SDS011;2994;51.220;4.412;2024-02-28T03:57:55;12.37;;;11.17;;
5937;SDS011;2994;51.220;4.412;2024-02-28T04:00:21;12.50;;;10.80;;
5937;SDS011;2994;51.220;4.412;2024-02-28T04:02:47;13.17;;;11.83;;
5937;SDS011;2994;51.220;4.412;2024-02-28T04:05:12;13.30;;;12.07;;
5937;SDS011;2994;51.220;4.412;2024-02-28T04:07:37;13.00;;;11.13;;
5937;SDS011;2994;51.220;4.412;2024-02-28T04:10:04;15.07;;;10.50;;
5937;SDS011;2994;51.220;4.412;2024-02-28T04:12:30;12.37;;;10.83;;
5937;SDS011;2994;51.220;4.412;2024-02-28T04:14:56;11.83;;;10.00;;
5937;SDS011;2994;51.220;4.412;2024-02-28T04:17:23;12.00;;;10.73;;
5937;SDS011;2994;51.220;4.412;2024-02-28T04:19:48;12.27;;;11.07;;
5937;SDS011;2994;51.220;4.412;2024-02-28T04:22:14;15.10;;;11.37;;
5937;SDS011;2994;51.220;4.412;2024-02-28T04:24:39;14.43;;;10.93;;
5937;SDS011;2994;51.220;4.412;2024-02-28T04:27:04;12.83;;;10.93;;
5937;SDS011;2994;51.220;4.412;2024-02-28T04:29:31;11.80;;;10.57;;
5937;SDS011;2994;51.220;4.412;2024-02-28T04:31:56;11.20;;;9.90;;
5937;SDS011;2994;51.220;4.412;2024-02-28T04:34:22;13.07;;;11.77;;
5937;SDS011;2994;51.220;4.412;2024-02-28T04:36:47;12.93;;;11.30;;
5937;SDS011;2994;51.220;4.412;2024-02-28T04:39:13;12.87;;;11.67;;
5937;SDS011;2994;51.220;4.412;2024-02-28T04:41:38;11.60;;;10.40;;
5937;SDS011;2994;51.220;4.412;2024-02-28T04:44:04;13.03;;;11.83;;
5937;SDS011;2994;51.220;4.412;2024-02-28T04:46:29;12.80;;;10.33;;
5937;SDS011;2994;51.220;4.412;2024-02-28T04:48:55;12.70;;;11.40;;
5937;SDS011;2994;51.220;4.412;2024-02-28T04:51:21;12.47;;;11.20;;
5937;SDS011;2994;51.220;4.412;2024-02-28T04:53:47;13.57;;;12.30;;
5937;SDS011;2994;51.220;4.412;2024-02-28T04:56:12;13.70;;;11.53;;
5937;SDS011;2994;51.220;4.412;2024-02-28T04:58:38;13.87;;;12.43;;
5937;SDS011;2994;51.220;4.412;2024-02-28T05:01:03;15.73;;;11.17;;
5937;SDS011;2994;51.220;4.412;2024-02-28T05:03:29;13.33;;;11.93;;
5937;SDS011;2994;51.220;4.412;2024-02-28T05:05:54;14.10;;;10.80;;
5937;SDS011;2994;51.220;4.412;2024-02-28T05:08:20;14.03;;;12.10;;
5937;SDS011;2994;51.220;4.412;2024-02-28T05:10:46;14.17;;;12.73;;
5937;SDS011;2994;51.220;4.412;2024-02-28T05:13:12;14.40;;;12.90;;
5937;SDS011;2994;51.220;4.412;2024-02-28T05:15:37;12.93;;;11.73;;
5937;SDS011;2994;51.220;4.412;2024-02-28T05:18:03;13.33;;;12.10;;
5937;SDS011;2994;51.220;4.412;2024-02-28T05:20:29;13.90;;;12.60;;
5937;SDS011;2994;51.220;4.412;2024-02-28T05:22:54;13.63;;;12.23;;
5937;SDS011;2994;51.220;4.412;2024-02-28T05:25:20;14.37;;;12.97;;
5937;SDS011;2994;51.220;4.412;2024-02-28T05:27:45;14.17;;;12.73;;
5937;SDS011;2994;51.220;4.412;2024-02-28T05:30:11;14.63;;;13.10;;
5937;SDS011;2994;51.220;4.412;2024-02-28T05:32:36;13.50;;;12.10;;
5937;SDS011;2994;51.220;4.412;2024-02-28T05:35:02;14.93;;;12.90;;
5937;SDS011;2994;51.220;4.412;2024-02-28T05:37:28;12.50;;;11.23;;
5937;SDS011;2994;51.220;4.412;2024-02-28T05:39:53;14.40;;;12.90;;
5937;SDS011;2994;51.220;4.412;2024-02-28T05:42:19;13.37;;;11.93;;
5937;SDS011;2994;51.220;4.412;2024-02-28T05:44:50;16.87;;;13.00;;
5937;SDS011;2994;51.220;4.412;2024-02-28T05:47:15;15.07;;;12.43;;
5937;SDS011;2994;51.220;4.412;2024-02-28T05:49:42;15.83;;;12.47;;
5937;SDS011;2994;51.220;4.412;2024-02-28T05:52:07;12.13;;;10.93;;
5937;SDS011;2994;51.220;4.412;2024-02-28T05:54:34;16.80;;;12.50;;
5937;SDS011;2994;51.220;4.412;2024-02-28T05:57:00;14.20;;;11.77;;
5937;SDS011;2994;51.220;4.412;2024-02-28T05:59:25;14.93;;;13.53;;
5937;SDS011;2994;51.220;4.412;2024-02-28T06:01:51;18.03;;;12.30;;
5937;SDS011;2994;51.220;4.412;2024-02-28T06:04:17;14.67;;;13.17;;
5937;SDS011;2994;51.220;4.412;2024-02-28T06:06:42;14.33;;;12.87;;
5937;SDS011;2994;51.220;4.412;2024-02-28T06:09:08;13.97;;;11.37;;
5937;SDS011;2994;51.220;4.412;2024-02-28T06:11:33;15.60;;;13.30;;
5937;SDS011;2994;51.220;4.412;2024-02-28T06:13:59;14.43;;;11.40;;
5937;SDS011;2994;51.220;4.412;2024-02-28T06:16:24;14.40;;;12.53;;
5937;SDS011;2994;51.220;4.412;2024-02-28T06:18:50;14.00;;;12.63;;
5937;SDS011;2994;51.220;4.412;2024-02-28T06:21:15;14.13;;;12.63;;
5937;SDS011;2994;51.220;4.412;2024-02-28T06:23:41;13.60;;;12.20;;
5937;SDS011;2994;51.220;4.412;2024-02-28T06:26:06;17.83;;;12.83;;
5937;SDS011;2994;51.220;4.412;2024-02-28T06:28:39;15.93;;;11.57;;
5937;SDS011;2994;51.220;4.412;2024-02-28T06:31:11;13.70;;;12.23;;
5937;SDS011;2994;51.220;4.412;2024-02-28T06:33:41;12.70;;;11.37;;
5937;SDS011;2994;51.220;4.412;2024-02-28T06:36:07;17.03;;;12.60;;
5937;SDS011;2994;51.220;4.412;2024-02-28T06:38:32;12.07;;;10.83;;
5937;SDS011;2994;51.220;4.412;2024-02-28T06:40:59;13.10;;;11.10;;
5937;SDS011;2994;51.220;4.412;2024-02-28T06:43:26;17.70;;;13.40;;
5937;SDS011;2994;51.220;4.412;2024-02-28T06:45:52;12.43;;;11.30;;
5937;SDS011;2994;51.220;4.412;2024-02-28T06:48:17;16.97;;;11.57;;
5937;SDS011;2994;51.220;4.412;2024-02-28T06:50:43;14.10;;;12.70;;
5937;SDS011;2994;51.220;4.412;2024-02-28T06:53:08;16.87;;;12.53;;
5937;SDS011;2994;51.220;4.412;2024-02-28T06:55:34;13.63;;;12.40;;
5937;SDS011;2994;51.220;4.412;2024-02-28T06:57:59;15.67;;;11.90;;
5937;SDS011;2994;51.220;4.412;2024-02-28T07:00:25;15.70;;;12.80;;
5937;SDS011;2994;51.220;4.412;2024-02-28T07:02:50;13.13;;;11.50;;
5937;SDS011;2994;51.220;4.412;2024-02-28T07:05:16;14.57;;;11.67;;
5937;SDS011;2994;51.220;4.412;2024-02-28T07:07:42;15.47;;;13.87;;
5937;SDS011;2994;51.220;4.412;2024-02-28T07:10:07;14.27;;;12.73;;
5937;SDS011;2994;51.220;4.412;2024-02-28T07:12:33;13.90;;;12.50;;
5937;SDS011;2994;51.220;4.412;2024-02-28T07:15:01;15.60;;;12.43;;
5937;SDS011;2994;51.220;4.412;2024-02-28T07:17:31;13.87;;;12.37;;
5937;SDS011;2994;51.220;4.412;2024-02-28T07:19:56;16.40;;;12.47;;
5937;SDS011;2994;51.220;4.412;2024-02-28T07:22:22;18.07;;;11.93;;
5937;SDS011;2994;51.220;4.412;2024-02-28T07:24:48;14.47;;;12.90;;
5937;SDS011;2994;51.220;4.412;2024-02-28T07:27:13;16.87;;;13.60;;
5937;SDS011;2994;51.220;4.412;2024-02-28T07:29:39;19.33;;;14.10;;
5937;SDS011;2994;51.220;4.412;2024-02-28T07:32:04;14.63;;;12.63;;
5937;SDS011;2994;51.220;4.412;2024-02-28T07:47:29;16.70;;;13.17;;
5937;SDS011;2994;51.220;4.412;2024-02-28T07:50:00;15.50;;;13.13;;
5937;SDS011;2994;51.220;4.412;2024-02-28T08:00:23;16.80;;;14.47;;
5937;SDS011;2994;51.220;4.412;2024-02-28T08:02:50;19.13;;;14.27;;
5937;SDS011;2994;51.220;4.412;2024-02-28T08:05:16;15.73;;;13.40;;
5937;SDS011;2994;51.220;4.412;2024-02-28T08:07:42;15.73;;;13.20;;
5937;SDS011;2994;51.220;4.412;2024-02-28T08:12:47;17.97;;;13.80;;
5937;SDS011;2994;51.220;4.412;2024-02-28T08:15:12;16.40;;;14.50;;
5937;SDS011;2994;51.220;4.412;2024-02-28T08:17:38;19.00;;;15.50;;
5937;SDS011;2994;51.220;4.412;2024-02-28T08:20:04;15.57;;;13.87;;
5937;SDS011;2994;51.220;4.412;2024-02-28T08:22:31;17.13;;;14.60;;
5937;SDS011;2994;51.220;4.412;2024-02-28T08:24:56;19.73;;;13.80;;
5937;SDS011;2994;51.220;4.412;2024-02-28T08:27:22;18.53;;;15.10;;
5937;SDS011;2994;51.220;4.412;2024-02-28T08:29:49;19.80;;;14.53;;
5937;SDS011;2994;51.220;4.412;2024-02-28T08:32:14;19.40;;;15.90;;
5937;SDS011;2994;51.220;4.412;2024-02-28T08:34:43;20.47;;;15.60;;
5937;SDS011;2994;51.220;4.412;2024-02-28T08:37:10;26.47;;;16.70;;
5937;SDS011;2994;51.220;4.412;2024-02-28T08:42:11;21.73;;;18.00;;
5937;SDS011;2994;51.220;4.412;2024-02-28T08:44:37;24.50;;;16.77;;
5937;SDS011;2994;51.220;4.412;2024-02-28T08:47:03;24.73;;;15.33;;
5937;SDS011;2994;51.220;4.412;2024-02-28T08:49:29;22.20;;;16.80;;
5937;SDS011;2994;51.220;4.412;2024-02-28T08:51:56;22.60;;;18.50;;
5937;SDS011;2994;51.220;4.412;2024-02-28T08:54:22;27.87;;;17.97;;
5937;SDS011;2994;51.220;4.412;2024-02-28T08:56:50;25.23;;;18.33;;
5937;SDS011;2994;51.220;4.412;2024-02-28T08:59:16;28.90;;;17.80;;
5937;SDS011;2994;51.220;4.412;2024-02-28T09:01:42;27.47;;;16.30;;
5937;SDS011;2994;51.220;4.412;2024-02-28T09:04:07;26.27;;;19.10;;
5937;SDS011;2994;51.220;4.412;2024-02-28T09:06:33;23.57;;;17.80;;
5937;SDS011;2994;51.220;4.412;2024-02-28T09:08:58;28.33;;;18.37;;
5937;SDS011;2994;51.220;4.412;2024-02-28T09:11:24;26.20;;;17.37;;
5937;SDS011;2994;51.220;4.412;2024-02-28T09:13:50;29.63;;;18.80;;
5937;SDS011;2994;51.220;4.412;2024-02-28T09:16:16;21.43;;;17.00;;
5937;SDS011;2994;51.220;4.412;2024-02-28T09:18:41;26.73;;;17.67;;
5937;SDS011;2994;51.220;4.412;2024-02-28T09:21:10;21.50;;;17.37;;
5937;SDS011;2994;51.220;4.412;2024-02-28T09:23:35;25.40;;;18.70;;
5937;SDS011;2994;51.220;4.412;2024-02-28T09:26:04;24.37;;;17.90;;
5937;SDS011;2994;51.220;4.412;2024-02-28T09:28:30;24.57;;;18.77;;
5937;SDS011;2994;51.220;4.412;2024-02-28T09:30:59;25.03;;;16.27;;
5937;SDS011;2994;51.220;4.412;2024-02-28T09:33:24;23.97;;;17.80;;
5937;SDS011;2994;51.220;4.412;2024-02-28T09:35:50;26.60;;;19.33;;
5937;SDS011;2994;51.220;4.412;2024-02-28T09:38:15;28.30;;;18.13;;
5937;SDS011;2994;51.220;4.412;2024-02-28T09:40:41;27.93;;;18.57;;
5937;SDS011;2994;51.220;4.412;2024-02-28T09:43:11;23.60;;;16.20;;
5937;SDS011;2994;51.220;4.412;2024-02-28T09:45:44;29.60;;;16.97;;
5937;SDS011;2994;51.220;4.412;2024-02-28T09:48:09;22.87;;;16.07;;
5937;SDS011;2994;51.220;4.412;2024-02-28T09:50:37;25.87;;;17.33;;
5937;SDS011;2994;51.220;4.412;2024-02-28T09:53:04;27.93;;;16.60;;
5937;SDS011;2994;51.220;4.412;2024-02-28T09:55:29;22.93;;;17.53;;
5937;SDS011;2994;51.220;4.412;2024-02-28T09:57:55;21.27;;;16.53;;
5937;SDS011;2994;51.220;4.412;2024-02-28T10:00:22;27.77;;;16.80;;
5937;SDS011;2994;51.220;4.412;2024-02-28T10:02:48;27.90;;;14.83;;
5937;SDS011;2994;51.220;4.412;2024-02-28T10:05:22;22.00;;;15.83;;
5937;SDS011;2994;51.220;4.412;2024-02-28T10:07:51;17.17;;;14.07;;
5937;SDS011;2994;51.220;4.412;2024-02-28T10:10:18;18.57;;;14.20;;
5937;SDS011;2994;51.220;4.412;2024-02-28T10:12:44;20.83;;;14.90;;
5937;SDS011;2994;51.220;4.412;2024-02-28T10:15:10;19.03;;;15.00;;
5937;SDS011;2994;51.220;4.412;2024-02-28T10:17:36;23.80;;;15.87;;
5937;SDS011;2994;51.220;4.412;2024-02-28T10:20:09;20.97;;;14.37;;
5937;SDS011;2994;51.220;4.412;2024-02-28T10:22:36;24.37;;;16.13;;
5937;SDS011;2994;51.220;4.412;2024-02-28T10:25:02;21.00;;;14.77;;
5937;SDS011;2994;51.220;4.412;2024-02-28T10:27:31;17.70;;;13.87;;
5937;SDS011;2994;51.220;4.412;2024-02-28T10:29:57;21.63;;;13.70;;
5937;SDS011;2994;51.220;4.412;2024-02-28T10:32:23;19.20;;;13.50;;
5937;SDS011;2994;51.220;4.412;2024-02-28T10:34:48;18.87;;;13.47;;
5937;SDS011;2994;51.220;4.412;2024-02-28T10:37:14;18.53;;;13.30;;
5937;SDS011;2994;51.220;4.412;2024-02-28T10:39:42;17.27;;;12.33;;
5937;SDS011;2994;51.220;4.412;2024-02-28T10:42:09;18.63;;;12.40;;
5937;SDS011;2994;51.220;4.412;2024-02-28T10:44:36;17.07;;;13.80;;
5937;SDS011;2994;51.220;4.412;2024-02-28T10:47:07;16.60;;;12.70;;
5937;SDS011;2994;51.220;4.412;2024-02-28T10:49:33;17.27;;;12.33;;
5937;SDS011;2994;51.220;4.412;2024-02-28T10:51:59;17.90;;;12.93;;
5937;SDS011;2994;51.220;4.412;2024-02-28T10:54:35;17.37;;;12.97;;
5937;SDS011;2994;51.220;4.412;2024-02-28T10:57:07;16.17;;;11.60;;
5937;SDS011;2994;51.220;4.412;2024-02-28T10:59:33;22.47;;;12.40;;
5937;SDS011;2994;51.220;4.412;2024-02-28T11:02:02;17.60;;;11.70;;
5937;SDS011;2994;51.220;4.412;2024-02-28T11:07:42;11.83;;;10.30;;
5937;SDS011;2994;51.220;4.412;2024-02-28T11:10:18;13.87;;;10.20;;
5937;SDS011;2994;51.220;4.412;2024-02-28T11:13:20;13.07;;;9.70;;
5937;SDS011;2994;51.220;4.412;2024-02-28T11:15:47;12.10;;;10.20;;
5937;SDS011;2994;51.220;4.412;2024-02-28T11:31:02;11.40;;;8.80;;
5937;SDS011;2994;51.220;4.412;2024-02-28T11:33:28;11.77;;;8.30;;
5937;SDS011;2994;51.220;4.412;2024-02-28T11:35:59;11.20;;;9.17;;
5937;SDS011;2994;51.220;4.412;2024-02-28T11:38:25;11.67;;;9.60;;
5937;SDS011;2994;51.220;4.412;2024-02-28T11:40:52;12.53;;;8.53;;
5937;SDS011;2994;51.220;4.412;2024-02-28T11:43:18;12.20;;;9.53;;
5937;SDS011;2994;51.220;4.412;2024-02-28T11:45:44;13.13;;;7.80;;
5937;SDS011;2994;51.220;4.412;2024-02-28T11:48:12;11.97;;;9.60;;
5937;SDS011;2994;51.220;4.412;2024-02-28T11:50:39;8.93;;;7.50;;
5937;SDS011;2994;51.220;4.412;2024-02-28T11:53:08;9.73;;;7.83;;
5937;SDS011;2994;51.220;4.412;2024-02-28T11:55:37;10.87;;;8.57;;
5937;SDS011;2994;51.220;4.412;2024-02-28T11:58:11;13.77;;;8.83;;
5937;SDS011;2994;51.220;4.412;2024-02-28T12:08:27;10.70;;;8.57;;
5937;SDS011;2994;51.220;4.412;2024-02-28T12:10:53;12.43;;;8.37;;
5937;SDS011;2994;51.220;4.412;2024-02-28T12:13:22;11.80;;;9.07;;
5937;SDS011;2994;51.220;4.412;2024-02-28T12:16:00;12.40;;;9.10;;
5937;SDS011;2994;51.220;4.412;2024-02-28T12:21:01;9.73;;;8.50;;
5937;SDS011;2994;51.220;4.412;2024-02-28T12:23:27;10.03;;;8.60;;
5937;SDS011;2994;51.220;4.412;2024-02-28T12:28:30;11.30;;;8.53;;
5937;SDS011;2994;51.220;4.412;2024-02-28T12:31:07;8.87;;;7.83;;
5937;SDS011;2994;51.220;4.412;2024-02-28T12:33:47;8.80;;;7.73;;
5937;SDS011;2994;51.220;4.412;2024-02-28T12:36:13;9.37;;;8.37;;
5937;SDS011;2994;51.220;4.412;2024-02-28T12:38:39;10.00;;;8.40;;
5937;SDS011;2994;51.220;4.412;2024-02-28T12:41:06;8.33;;;7.53;;
5937;SDS011;2994;51.220;4.412;2024-02-28T12:43:32;9.50;;;7.90;;
5937;SDS011;2994;51.220;4.412;2024-02-28T12:45:58;13.53;;;7.40;;
5937;SDS011;2994;51.220;4.412;2024-02-28T12:48:27;9.40;;;8.00;;
5937;SDS011;2994;51.220;4.412;2024-02-28T12:50:59;9.60;;;8.30;;
5937;SDS011;2994;51.220;4.412;2024-02-28T12:53:25;10.40;;;8.40;;
5937;SDS011;2994;51.220;4.412;2024-02-28T12:55:53;8.47;;;7.60;;
5937;SDS011;2994;51.220;4.412;2024-02-28T12:58:21;12.30;;;8.23;;
5937;SDS011;2994;51.220;4.412;2024-02-28T13:00:48;9.20;;;8.23;;
5937;SDS011;2994;51.220;4.412;2024-02-28T13:03:15;11.97;;;9.43;;
5937;SDS011;2994;51.220;4.412;2024-02-28T13:05:41;10.67;;;9.50;;
5937;SDS011;2994;51.220;4.412;2024-02-28T13:08:07;13.40;;;9.20;;
5937;SDS011;2994;51.220;4.412;2024-02-28T13:10:32;36.03;;;15.63;;
5937;SDS011;2994;51.220;4.412;2024-02-28T13:13:01;15.60;;;10.37;;
5937;SDS011;2994;51.220;4.412;2024-02-28T13:15:31;10.27;;;8.70;;
5937;SDS011;2994;51.220;4.412;2024-02-28T13:17:59;28.17;;;12.97;;
5937;SDS011;2994;51.220;4.412;2024-02-28T13:20:32;25.47;;;12.70;;
5937;SDS011;2994;51.220;4.412;2024-02-28T13:23:05;28.57;;;13.00;;
5937;SDS011;2994;51.220;4.412;2024-02-28T13:25:31;19.93;;;10.20;;
5937;SDS011;2994;51.220;4.412;2024-02-28T13:27:59;10.73;;;9.30;;
5937;SDS011;2994;51.220;4.412;2024-02-28T13:30:24;9.40;;;8.40;;
5937;SDS011;2994;51.220;4.412;2024-02-28T13:32:50;8.67;;;7.87;;
5937;SDS011;2994;51.220;4.412;2024-02-28T13:48:29;10.70;;;7.20;;
5937;SDS011;2994;51.220;4.412;2024-02-28T13:50:56;8.97;;;6.93;;
5937;SDS011;2994;51.220;4.412;2024-02-28T13:53:26;8.73;;;6.40;;
5937;SDS011;2994;51.220;4.412;2024-02-28T13:55:52;11.87;;;6.50;;
5937;SDS011;2994;51.220;4.412;2024-02-28T13:58:21;8.07;;;6.40;;
5937;SDS011;2994;51.220;4.412;2024-02-28T14:00:47;10.27;;;6.73;;
5937;SDS011;2994;51.220;4.412;2024-02-28T14:03:15;6.40;;;5.33;;
5937;SDS011;2994;51.220;4.412;2024-02-28T14:05:56;8.10;;;6.40;;
5937;SDS011;2994;51.220;4.412;2024-02-28T14:08:32;7.20;;;5.43;;
5937;SDS011;2994;51.220;4.412;2024-02-28T14:11:04;6.57;;;5.57;;
5937;SDS011;2994;51.220;4.412;2024-02-28T14:13:33;10.30;;;6.53;;
5937;SDS011;2994;51.220;4.412;2024-02-28T14:16:06;10.50;;;6.17;;
5937;SDS011;2994;51.220;4.412;2024-02-28T14:21:36;7.27;;;5.90;;
5937;SDS011;2994;51.220;4.412;2024-02-28T14:24:02;9.87;;;5.93;;
5937;SDS011;2994;51.220;4.412;2024-02-28T14:26:31;10.00;;;5.97;;
5937;SDS011;2994;51.220;4.412;2024-02-28T14:29:07;8.27;;;5.77;;
5937;SDS011;2994;51.220;4.412;2024-02-28T14:39:37;9.00;;;6.20;;
5937;SDS011;2994;51.220;4.412;2024-02-28T14:42:09;5.80;;;5.30;;
5937;SDS011;2994;51.220;4.412;2024-02-28T14:44:38;8.80;;;6.13;;
5937;SDS011;2994;51.220;4.412;2024-02-28T14:47:06;6.47;;;5.87;;
5937;SDS011;2994;51.220;4.412;2024-02-28T14:49:39;9.80;;;6.20;;
5937;SDS011;2994;51.220;4.412;2024-02-28T14:52:10;6.73;;;6.13;;
5937;SDS011;2994;51.220;4.412;2024-02-28T14:54:36;6.40;;;5.60;;
5937;SDS011;2994;51.220;4.412;2024-02-28T14:57:05;6.23;;;5.60;;
5937;SDS011;2994;51.220;4.412;2024-02-28T14:59:37;7.43;;;6.30;;
5937;SDS011;2994;51.220;4.412;2024-02-28T15:05:09;7.13;;;6.40;;
5937;SDS011;2994;51.220;4.412;2024-02-28T15:18:17;6.10;;;5.60;;
5937;SDS011;2994;51.220;4.412;2024-02-28T15:20:47;7.20;;;5.87;;
5937;SDS011;2994;51.220;4.412;2024-02-28T15:23:19;7.67;;;6.27;;
5937;SDS011;2994;51.220;4.412;2024-02-28T15:25:49;6.80;;;6.10;;
5937;SDS011;2994;51.220;4.412;2024-02-28T15:28:21;6.87;;;6.20;;
5937;SDS011;2994;51.220;4.412;2024-02-28T15:30:54;6.13;;;5.63;;
5937;SDS011;2994;51.220;4.412;2024-02-28T15:33:23;7.10;;;6.40;;
5937;SDS011;2994;51.220;4.412;2024-02-28T15:35:51;8.03;;;6.43;;
5937;SDS011;2994;51.220;4.412;2024-02-28T15:38:19;10.80;;;6.40;;
5937;SDS011;2994;51.220;4.412;2024-02-28T15:40:49;6.60;;;5.30;;
5937;SDS011;2994;51.220;4.412;2024-02-28T15:43:21;6.90;;;6.30;;
5937;SDS011;2994;51.220;4.412;2024-02-28T15:45:58;7.00;;;5.33;;
5937;SDS011;2994;51.220;4.412;2024-02-28T15:48:28;7.50;;;5.73;;
5937;SDS011;2994;51.220;4.412;2024-02-28T15:51:13;6.90;;;4.83;;
5937;SDS011;2994;51.220;4.412;2024-02-28T15:53:43;5.87;;;5.33;;
5937;SDS011;2994;51.220;4.412;2024-02-28T15:56:17;7.20;;;5.80;;
5937;SDS011;2994;51.220;4.412;2024-02-28T15:58:51;7.60;;;5.10;;
5937;SDS011;2994;51.220;4.412;2024-02-28T16:01:27;5.33;;;4.83;;
5937;SDS011;2994;51.220;4.412;2024-02-28T16:04:00;4.97;;;4.47;;
5937;SDS011;2994;51.220;4.412;2024-02-28T16:06:31;5.40;;;4.90;;
5937;SDS011;2994;51.220;4.412;2024-02-28T16:09:01;8.43;;;4.67;;
5937;SDS011;2994;51.220;4.412;2024-02-28T16:11:33;6.10;;;4.73;;
5937;SDS011;2994;51.220;4.412;2024-02-28T16:14:18;6.40;;;4.30;;
5937;SDS011;2994;51.220;4.412;2024-02-28T16:22:22;8.60;;;5.40;;
5937;SDS011;2994;51.220;4.412;2024-02-28T16:24:53;6.60;;;5.97;;
5937;SDS011;2994;51.220;4.412;2024-02-28T16:27:18;7.20;;;6.60;;
5937;SDS011;2994;51.220;4.412;2024-02-28T16:29:44;8.63;;;5.20;;
5937;SDS011;2994;51.220;4.412;2024-02-28T16:32:10;7.67;;;5.00;;
5937;SDS011;2994;51.220;4.412;2024-02-28T16:34:41;7.30;;;6.47;;
5937;SDS011;2994;51.220;4.412;2024-02-28T16:37:13;4.57;;;3.73;;